createdAt,value
2018-08-24T00:00:11.349Z,18.00
2018-08-24T00:02:39.785Z,18.00
2018-08-24T00:05:08.252Z,18.00
2018-08-24T00:07:36.669Z,18.10
2018-08-24T00:10:05.729Z,18.20
2018-08-24T00:12:34.164Z,18.20
2018-08-24T00:15:03.550Z,18.20
2018-08-24T00:17:32.264Z,18.20
2018-08-24T00:20:01.472Z,18.30
2018-08-24T00:22:30.086Z,18.30
2018-08-24T00:24:58.472Z,18.30
2018-08-24T00:27:26.888Z,18.40
2018-08-24T00:29:55.302Z,18.40
2018-08-24T00:32:23.741Z,18.40
2018-08-24T00:34:52.155Z,18.40
2018-08-24T00:37:20.616Z,18.40
2018-08-24T00:39:49.178Z,18.40
2018-08-24T00:42:17.592Z,18.50
2018-08-24T00:44:46.021Z,18.50
2018-08-24T00:47:14.448Z,18.50
2018-08-24T00:49:42.872Z,18.50
2018-08-24T00:52:11.260Z,18.50
2018-08-24T00:54:39.715Z,18.50
2018-08-24T00:57:08.159Z,18.50
2018-08-24T00:59:36.637Z,18.50
2018-08-24T01:02:05.301Z,18.50
2018-08-24T01:04:34.307Z,18.50
2018-08-24T01:07:08.540Z,18.50
2018-08-24T01:09:37.294Z,18.50
2018-08-24T01:12:13.131Z,18.50
2018-08-24T01:14:48.640Z,18.50
2018-08-24T01:17:22.274Z,18.50
2018-08-24T01:19:50.704Z,18.40
2018-08-24T01:24:47.301Z,18.40
2018-08-24T01:27:15.707Z,18.40
2018-08-24T01:29:44.397Z,18.30
2018-08-24T01:32:14.472Z,18.30
2018-08-24T01:34:42.963Z,18.30
2018-08-24T01:42:07.638Z,18.30
2018-08-24T01:44:36.134Z,18.30
2018-08-24T01:47:04.589Z,18.30
2018-08-24T01:52:01.117Z,18.20
2018-08-24T01:54:29.556Z,18.20
2018-08-24T01:56:57.965Z,18.20
2018-08-24T02:01:54.484Z,18.00
2018-08-24T02:04:23.161Z,18.00
2018-08-24T02:06:51.556Z,18.00
2018-08-24T02:09:22.844Z,17.90
2018-08-24T02:11:51.667Z,17.90
2018-08-24T02:14:25.694Z,17.80
2018-08-24T02:16:54.098Z,17.80
2018-08-24T02:19:27.988Z,17.80
2018-08-24T02:22:01.699Z,17.70
2018-08-24T02:24:30.224Z,17.70
2018-08-24T02:26:58.656Z,17.70
2018-08-24T02:29:27.073Z,17.60
2018-08-24T02:31:55.520Z,17.50
2018-08-24T02:34:23.966Z,17.40
2018-08-24T02:36:52.423Z,17.40
2018-08-24T02:39:20.865Z,17.30
2018-08-24T02:41:49.312Z,17.30
2018-08-24T02:44:17.773Z,17.30
2018-08-24T02:46:46.513Z,17.20
2018-08-24T02:49:15.023Z,17.20
2018-08-24T02:54:11.597Z,17.20
2018-08-24T02:56:40.044Z,17.20
2018-08-24T02:59:08.466Z,17.20
2018-08-24T03:01:36.896Z,17.10
2018-08-24T03:04:05.322Z,17.20
2018-08-24T03:06:33.744Z,17.10
2018-08-24T03:09:02.189Z,17.10
2018-08-24T03:11:30.604Z,17.10
2018-08-24T03:13:59.061Z,17.10
2018-08-24T03:16:27.591Z,17.10
2018-08-24T03:18:55.990Z,17.10
2018-08-24T03:21:24.400Z,17.10
2018-08-24T03:23:52.801Z,17.10
2018-08-24T03:26:21.246Z,17.10
2018-08-24T03:28:49.648Z,17.00
2018-08-24T03:31:18.065Z,17.00
2018-08-24T03:33:46.516Z,17.00
2018-08-24T03:36:14.940Z,17.00
2018-08-24T03:38:43.344Z,17.00
2018-08-24T03:41:11.789Z,17.00
2018-08-24T03:43:40.220Z,16.90
2018-08-24T03:46:08.652Z,16.90
2018-08-24T03:48:37.064Z,16.80
2018-08-24T03:51:05.505Z,16.80
2018-08-24T03:53:33.884Z,16.80
2018-08-24T03:56:02.342Z,16.80
2018-08-24T03:58:30.756Z,16.80
2018-08-24T04:00:59.632Z,16.70
2018-08-24T04:03:29.133Z,16.70
2018-08-24T04:05:57.569Z,16.70
2018-08-24T04:08:26.041Z,16.70
2018-08-24T04:10:54.473Z,16.70
2018-08-24T04:13:22.864Z,16.70
2018-08-24T04:15:51.301Z,16.80
2018-08-24T04:18:19.729Z,16.70
2018-08-24T04:20:48.196Z,16.80
2018-08-24T04:23:16.712Z,16.80
2018-08-24T04:25:45.177Z,16.70
2018-08-24T04:28:13.749Z,16.70
2018-08-24T04:30:42.141Z,16.80
2018-08-24T04:35:38.709Z,16.80
2018-08-24T04:38:07.160Z,16.90
2018-08-24T04:40:35.592Z,16.90
2018-08-24T04:43:04.031Z,17.00
2018-08-24T04:45:32.465Z,17.00
2018-08-24T04:48:00.898Z,17.20
2018-08-24T04:50:29.309Z,17.30
2018-08-24T04:52:57.722Z,17.40
2018-08-24T04:55:26.149Z,17.50
2018-08-24T04:57:54.620Z,17.50
2018-08-24T05:00:23.062Z,17.60
2018-08-24T05:02:51.525Z,17.60
2018-08-24T05:05:19.904Z,17.70
2018-08-24T05:07:48.336Z,17.80
2018-08-24T05:10:16.734Z,17.90
2018-08-24T05:12:45.477Z,17.90
2018-08-24T05:15:13.880Z,18.10
2018-08-24T05:17:42.297Z,18.10
2018-08-24T05:20:10.693Z,18.10
2018-08-24T05:22:39.113Z,18.20
2018-08-24T05:25:07.560Z,18.30
2018-08-24T05:27:35.985Z,18.30
2018-08-24T05:30:04.476Z,18.30
2018-08-24T05:32:32.919Z,18.20
2018-08-24T05:35:01.337Z,18.10
2018-08-24T05:37:29.769Z,18.00
2018-08-24T05:39:58.210Z,18.00
2018-08-24T05:42:26.639Z,18.20
2018-08-24T05:44:55.052Z,18.30
2018-08-24T05:47:23.516Z,18.40
2018-08-24T05:49:51.999Z,18.50
2018-08-24T05:52:20.464Z,18.70
2018-08-24T05:54:49.005Z,18.80
2018-08-24T05:57:17.430Z,18.90
2018-08-24T05:59:45.840Z,19.00
2018-08-24T06:02:14.260Z,19.00
2018-08-24T06:04:42.689Z,19.10
2018-08-24T06:07:11.229Z,19.20
2018-08-24T06:09:39.638Z,19.30
2018-08-24T06:12:08.341Z,19.40
2018-08-24T06:14:36.827Z,19.50
2018-08-24T06:17:10.674Z,19.50
2018-08-24T06:19:39.111Z,19.50
2018-08-24T06:22:07.505Z,19.50
2018-08-24T06:24:36.067Z,19.50
2018-08-24T06:27:04.432Z,19.50
2018-08-24T06:29:32.864Z,19.60
2018-08-24T06:32:01.463Z,19.70
2018-08-24T06:34:29.882Z,19.90
2018-08-24T06:36:58.327Z,20.10
2018-08-24T06:39:26.738Z,20.60
2018-08-24T06:41:55.314Z,20.70
2018-08-24T06:44:23.593Z,20.70
2018-08-24T06:46:52.034Z,20.70
2018-08-24T06:49:20.463Z,20.90
2018-08-24T06:51:48.907Z,21.40
2018-08-24T06:54:17.496Z,21.40
2018-08-24T06:56:45.896Z,21.20
2018-08-24T06:59:14.321Z,20.90
2018-08-24T07:01:42.707Z,20.60
2018-08-24T07:04:11.147Z,20.50
2018-08-24T07:06:39.557Z,20.50
2018-08-24T07:09:09.310Z,20.50
2018-08-24T07:11:37.697Z,20.60
2018-08-24T07:14:06.122Z,20.60
2018-08-24T07:16:34.542Z,20.60
2018-08-24T07:19:02.969Z,20.60
2018-08-24T07:21:31.457Z,20.70
2018-08-24T07:23:59.898Z,20.80
2018-08-24T07:26:28.276Z,20.80
2018-08-24T07:28:56.718Z,20.90
2018-08-24T07:31:25.137Z,21.00
2018-08-24T07:33:53.594Z,21.10
2018-08-24T07:36:22.007Z,21.20
2018-08-24T07:38:50.457Z,21.40
2018-08-24T07:41:18.916Z,21.80
2018-08-24T07:43:47.352Z,21.90
2018-08-24T07:46:15.740Z,22.00
2018-08-24T07:48:44.185Z,22.00
2018-08-24T07:51:12.569Z,22.70
2018-08-24T07:53:40.969Z,23.10
2018-08-24T07:56:09.444Z,22.90
2018-08-24T07:58:37.933Z,22.30
2018-08-24T08:01:06.381Z,22.00
2018-08-24T08:03:34.783Z,21.70
2018-08-24T08:06:03.220Z,21.40
2018-08-24T08:08:31.620Z,21.40
2018-08-24T08:11:00.145Z,21.20
2018-08-24T08:13:28.531Z,21.10
2018-08-24T08:15:56.961Z,21.00
2018-08-24T08:18:25.413Z,21.00
2018-08-24T08:20:53.787Z,21.00
2018-08-24T08:23:22.166Z,21.10
2018-08-24T08:28:18.716Z,21.30
2018-08-24T08:30:47.176Z,21.50
2018-08-24T08:33:15.564Z,21.80
2018-08-24T08:35:43.979Z,22.50
2018-08-24T08:38:12.365Z,23.40
2018-08-24T08:40:40.798Z,24.50
2018-08-24T08:43:09.188Z,25.20
2018-08-24T08:45:37.608Z,26.10
2018-08-24T08:48:06.024Z,25.90
2018-08-24T08:50:34.457Z,25.70
2018-08-24T08:53:02.885Z,25.40
2018-08-24T08:55:31.356Z,24.70
2018-08-24T08:57:59.769Z,24.10
2018-08-24T09:00:28.211Z,23.80
2018-08-24T09:05:24.802Z,23.20
2018-08-24T09:07:53.205Z,23.10
2018-08-24T09:10:21.712Z,23.20
2018-08-24T09:12:50.108Z,23.30
2018-08-24T09:15:18.545Z,23.40
2018-08-24T09:17:52.260Z,23.40
2018-08-24T09:20:25.973Z,23.40
2018-08-24T09:22:59.812Z,23.50
2018-08-24T09:25:33.569Z,23.40
2018-08-24T09:28:07.296Z,23.40
2018-08-24T09:30:39.872Z,23.40
2018-08-24T09:33:08.257Z,23.40
2018-08-24T09:35:36.673Z,23.20
2018-08-24T09:38:05.182Z,23.10
2018-08-24T09:40:38.789Z,23.00
2018-08-24T09:43:12.546Z,22.80
2018-08-24T09:45:40.903Z,22.60
2018-08-24T09:48:14.543Z,22.60
2018-08-24T09:50:48.329Z,22.70
2018-08-24T09:53:22.008Z,22.80
2018-08-24T09:55:50.487Z,22.70
2018-08-24T09:58:18.893Z,22.50
2018-08-24T10:00:52.657Z,22.20
2018-08-24T10:03:26.464Z,21.90
2018-08-24T10:06:00.266Z,21.80
2018-08-24T10:08:29.900Z,21.70
2018-08-24T10:10:58.329Z,21.70
2018-08-24T10:13:26.768Z,21.60
2018-08-24T10:15:55.162Z,21.30
2018-08-24T10:18:23.577Z,21.10
2018-08-24T10:20:51.969Z,20.80
2018-08-24T10:23:20.401Z,20.80
2018-08-24T10:25:48.817Z,20.70
2018-08-24T10:28:17.237Z,20.60
2018-08-24T10:30:45.725Z,20.60
2018-08-24T10:33:14.337Z,20.60
2018-08-24T10:35:42.732Z,20.50
2018-08-24T10:38:11.188Z,20.60
2018-08-24T10:40:39.633Z,20.70
2018-08-24T10:43:08.055Z,20.70
2018-08-24T10:45:37.102Z,20.60
2018-08-24T10:48:05.707Z,20.60
2018-08-24T10:50:34.321Z,20.50
2018-08-24T10:53:02.858Z,20.40
2018-08-24T10:55:31.314Z,20.30
2018-08-24T10:57:59.763Z,20.20
2018-08-24T11:00:28.172Z,20.10
2018-08-24T11:02:56.580Z,19.80
2018-08-24T11:05:25.065Z,19.50
2018-08-24T11:07:53.417Z,19.50
2018-08-24T11:10:21.796Z,19.60
2018-08-24T11:12:50.220Z,19.80
2018-08-24T11:15:18.608Z,19.80
2018-08-24T11:17:52.449Z,19.60
2018-08-24T11:20:20.836Z,19.60
2018-08-24T11:22:49.265Z,19.40
2018-08-24T11:25:17.709Z,19.30
2018-08-24T11:27:46.130Z,19.20
2018-08-24T11:30:14.534Z,19.10
2018-08-24T11:32:42.949Z,19.00
2018-08-24T11:35:11.369Z,19.00
2018-08-24T11:37:39.820Z,19.00
2018-08-24T11:40:08.207Z,19.10
2018-08-24T11:42:36.660Z,19.10
2018-08-24T11:45:05.436Z,19.10
2018-08-24T11:47:33.896Z,19.10
2018-08-24T11:50:02.303Z,19.20
2018-08-24T11:52:30.721Z,19.20
2018-08-24T11:54:59.255Z,19.30
2018-08-24T11:57:27.653Z,19.30
2018-08-24T11:59:56.133Z,19.40
2018-08-24T12:02:24.508Z,19.50
2018-08-24T12:04:52.953Z,19.60
2018-08-24T12:07:21.336Z,19.90
2018-08-24T12:09:49.772Z,20.30
2018-08-24T12:12:18.205Z,20.80
2018-08-24T12:14:46.625Z,21.20
2018-08-24T12:17:20.425Z,21.60
2018-08-24T12:19:48.869Z,22.20
2018-08-24T12:22:17.264Z,22.60
2018-08-24T12:24:45.704Z,22.80
2018-08-24T12:27:14.170Z,23.10
2018-08-24T12:29:42.568Z,23.10
2018-08-24T12:32:11.018Z,22.90
2018-08-24T12:34:39.482Z,22.90
2018-08-24T12:37:10.912Z,23.00
2018-08-24T12:39:40.052Z,23.10
2018-08-24T12:42:09.733Z,23.30
2018-08-24T12:44:38.745Z,23.00
2018-08-24T12:47:07.164Z,22.70
2018-08-24T12:49:35.619Z,22.30
2018-08-24T12:52:04.485Z,22.30
2018-08-24T12:54:32.926Z,22.40
2018-08-24T12:57:01.809Z,22.50
2018-08-24T12:59:30.263Z,22.60
2018-08-24T13:01:58.718Z,22.60
2018-08-24T13:04:27.171Z,22.60
2018-08-24T13:06:55.775Z,22.70
2018-08-24T13:09:24.242Z,22.90
2018-08-24T13:11:52.676Z,23.00
2018-08-24T13:14:21.173Z,23.00
2018-08-24T13:16:49.608Z,23.00
2018-08-24T13:19:18.058Z,23.20
2018-08-24T13:21:46.445Z,23.20
2018-08-24T13:24:14.914Z,23.20
2018-08-24T13:26:43.310Z,23.20
2018-08-24T13:29:11.748Z,23.20
2018-08-24T13:31:40.122Z,23.30
2018-08-24T13:34:08.578Z,23.30
2018-08-24T13:36:37.020Z,23.30
2018-08-24T13:39:07.651Z,23.30
2018-08-24T13:41:36.480Z,23.20
2018-08-24T13:44:04.935Z,22.90
2018-08-24T13:46:33.361Z,22.80
2018-08-24T13:49:01.756Z,22.80
2018-08-24T13:51:30.201Z,22.90
2018-08-24T13:53:58.676Z,23.00
2018-08-24T13:56:27.222Z,23.20
2018-08-24T13:58:55.681Z,23.20
2018-08-24T14:01:24.112Z,23.20
2018-08-24T14:03:52.535Z,23.40
2018-08-24T14:06:20.964Z,23.50
2018-08-24T14:08:49.365Z,23.60
2018-08-24T14:11:17.893Z,23.60
2018-08-24T14:13:46.295Z,23.70
2018-08-24T14:16:14.728Z,23.80
2018-08-24T14:18:43.117Z,23.80
2018-08-24T14:21:11.561Z,23.70
2018-08-24T14:23:39.945Z,23.70
2018-08-24T14:33:32.864Z,23.40
2018-08-24T14:36:01.305Z,23.40
2018-08-24T14:40:57.869Z,23.50
2018-08-24T14:43:26.294Z,23.80
2018-08-24T14:45:54.788Z,23.80
2018-08-24T14:48:23.288Z,23.90
2018-08-24T14:50:51.667Z,23.90
2018-08-24T14:53:20.071Z,23.70
2018-08-24T14:55:48.550Z,23.70
2018-08-24T14:58:16.956Z,23.70
2018-08-24T15:00:45.400Z,23.90
2018-08-24T15:03:13.797Z,24.00
2018-08-24T15:05:42.221Z,24.10
2018-08-24T15:08:10.616Z,24.00
2018-08-24T15:10:39.082Z,23.30
2018-08-24T15:13:07.490Z,22.70
2018-08-24T15:15:36.101Z,22.00
2018-08-24T15:20:32.643Z,21.10
2018-08-24T15:23:01.082Z,20.90
2018-08-24T15:25:29.485Z,20.70
2018-08-24T15:27:57.920Z,20.60
2018-08-24T15:30:26.404Z,20.40
2018-08-24T15:32:54.830Z,20.30
2018-08-24T15:35:23.227Z,20.20
2018-08-24T15:37:51.792Z,20.10
2018-08-24T15:40:20.196Z,20.10
2018-08-24T15:42:48.628Z,20.10
2018-08-24T15:47:45.216Z,20.10
2018-08-24T15:50:13.640Z,20.20
2018-08-24T15:52:42.076Z,20.20
2018-08-24T15:55:10.504Z,20.20
2018-08-24T15:57:38.937Z,20.20
2018-08-24T16:00:07.698Z,20.10
2018-08-24T16:02:36.151Z,20.00
2018-08-24T16:05:04.641Z,19.90
2018-08-24T16:07:37.380Z,19.90
2018-08-24T16:10:06.462Z,19.80
2018-08-24T16:15:03.236Z,19.60
2018-08-24T16:17:31.719Z,19.50
2018-08-24T16:20:00.496Z,19.50
2018-08-24T16:22:28.913Z,19.40
2018-08-24T16:24:57.312Z,19.40
2018-08-24T16:27:26.045Z,19.30
2018-08-24T16:29:56.329Z,19.20
2018-08-24T16:32:24.750Z,19.10
2018-08-24T16:34:53.176Z,19.00
2018-08-24T16:37:21.646Z,19.10
2018-08-24T16:39:50.048Z,19.10
2018-08-24T16:42:18.492Z,19.20
2018-08-24T16:44:47.168Z,19.30
2018-08-24T16:47:15.632Z,19.20
2018-08-24T16:49:44.012Z,19.20
2018-08-24T16:52:12.444Z,19.10
2018-08-24T16:54:40.891Z,19.10
2018-08-24T16:59:37.464Z,19.00
2018-08-24T17:02:05.976Z,18.90
2018-08-24T17:04:34.400Z,18.90
2018-08-24T17:07:02.823Z,18.90
2018-08-24T17:09:31.237Z,18.80
2018-08-24T17:11:59.651Z,18.80
2018-08-24T17:14:28.074Z,18.70
2018-08-24T17:16:56.478Z,18.60
2018-08-24T17:19:24.917Z,18.50
2018-08-24T17:21:53.301Z,18.50
2018-08-24T17:24:21.728Z,18.50
2018-08-24T17:26:50.100Z,18.50
2018-08-24T17:29:18.553Z,18.50
2018-08-24T17:31:46.942Z,18.50
2018-08-24T17:34:15.377Z,18.50
2018-08-24T17:36:43.768Z,18.40
2018-08-24T17:39:12.717Z,18.40
2018-08-24T17:41:41.237Z,18.30
2018-08-24T17:44:09.781Z,18.20
2018-08-24T17:46:38.320Z,18.10
2018-08-24T17:49:07.154Z,18.00
2018-08-24T17:51:35.696Z,17.90
2018-08-24T17:54:04.301Z,17.90
2018-08-24T17:56:32.857Z,17.90
2018-08-24T17:59:01.341Z,17.80
2018-08-24T18:01:29.788Z,17.70
2018-08-24T18:03:58.197Z,17.60
2018-08-24T18:06:26.604Z,17.60
2018-08-24T18:08:55.060Z,17.50
2018-08-24T18:11:23.461Z,17.50
2018-08-24T18:13:51.904Z,17.40
2018-08-24T18:16:20.360Z,17.30
2018-08-24T18:18:49.085Z,17.30
2018-08-24T18:21:17.478Z,17.30
2018-08-24T18:23:45.893Z,17.40
2018-08-24T18:26:14.300Z,17.30
2018-08-24T18:28:42.713Z,17.20
2018-08-24T18:31:11.120Z,17.20
2018-08-24T18:33:39.848Z,17.10
2018-08-24T18:36:08.301Z,17.10
2018-08-24T18:38:36.717Z,17.10
2018-08-24T18:41:05.144Z,17.20
2018-08-24T18:43:33.537Z,17.20
2018-08-24T18:46:01.993Z,17.30
2018-08-24T18:48:30.424Z,17.30
2018-08-24T18:50:58.842Z,17.40
2018-08-24T18:53:27.465Z,17.30
2018-08-24T18:55:55.937Z,17.30
2018-08-24T18:58:24.354Z,17.20
2018-08-24T19:00:52.781Z,17.20
2018-08-24T19:03:21.160Z,17.10
2018-08-24T19:05:49.575Z,17.10
2018-08-24T19:08:17.954Z,17.10
2018-08-24T19:10:51.740Z,17.10
2018-08-24T19:13:20.138Z,17.00
2018-08-24T19:15:48.693Z,16.80
2018-08-24T19:18:22.440Z,16.70
2018-08-24T19:20:56.244Z,16.70
2018-08-24T19:23:24.881Z,16.50
2018-08-24T19:25:53.376Z,16.50
2018-08-24T19:28:27.125Z,16.50
2018-08-24T19:30:55.553Z,16.60
2018-08-24T19:33:23.944Z,16.60
2018-08-24T19:35:52.365Z,16.70
2018-08-24T19:40:55.739Z,16.70
2018-08-24T19:43:24.230Z,16.70
2018-08-24T19:45:52.659Z,16.70
2018-08-24T19:48:26.421Z,16.70
2018-08-24T19:50:54.842Z,16.80
2018-08-24T19:53:23.236Z,16.80
2018-08-24T19:55:51.717Z,16.80
2018-08-24T19:58:25.457Z,16.80
2018-08-24T20:00:53.900Z,16.80
2018-08-24T20:03:22.336Z,16.80
2018-08-24T20:05:55.948Z,16.80
2018-08-24T20:08:29.649Z,16.80
2018-08-24T20:10:58.089Z,16.70
2018-08-24T20:13:26.484Z,16.70
2018-08-24T20:16:00.237Z,16.70
2018-08-24T20:18:28.652Z,16.70
2018-08-24T20:20:57.336Z,16.70
2018-08-24T20:23:25.749Z,16.60
2018-08-24T20:25:54.176Z,16.50
2018-08-24T20:28:22.577Z,16.60
2018-08-24T20:30:51.000Z,16.50
2018-08-24T20:33:19.488Z,16.40
2018-08-24T20:35:47.880Z,16.40
2018-08-24T20:38:16.292Z,16.40
2018-08-24T20:40:44.669Z,16.30
2018-08-24T20:43:13.144Z,16.30
2018-08-24T20:45:41.529Z,16.30
2018-08-24T20:48:09.987Z,16.30
2018-08-24T20:50:38.375Z,16.20
2018-08-24T20:53:06.792Z,16.10
2018-08-24T20:55:35.231Z,16.10
2018-08-24T21:00:31.789Z,15.90
2018-08-24T21:03:00.264Z,15.90
2018-08-24T21:05:28.712Z,15.90
2018-08-24T21:07:57.148Z,15.90
2018-08-24T21:10:25.560Z,15.90
2018-08-24T21:12:54.006Z,15.90
2018-08-24T21:15:22.410Z,15.70
2018-08-24T21:17:50.837Z,15.70
2018-08-24T21:20:19.258Z,15.80
2018-08-24T21:22:47.669Z,15.80
2018-08-24T21:25:16.088Z,15.80
2018-08-24T21:27:44.552Z,15.90
2018-08-24T21:30:12.971Z,15.90
2018-08-24T21:32:41.457Z,15.90
2018-08-24T21:35:09.860Z,15.90
2018-08-24T21:37:38.335Z,15.90
2018-08-24T21:40:06.761Z,15.90
2018-08-24T21:42:35.334Z,16.00
2018-08-24T21:45:03.797Z,16.00
2018-08-24T21:47:32.668Z,16.00
2018-08-24T21:50:01.064Z,16.00
2018-08-24T21:52:29.512Z,16.00
2018-08-24T21:54:57.924Z,16.00
2018-08-24T21:57:26.332Z,16.00
2018-08-24T21:59:54.769Z,15.90
2018-08-24T22:02:23.158Z,15.90
2018-08-24T22:04:51.625Z,15.90
2018-08-24T22:07:20.027Z,15.90
2018-08-24T22:09:48.736Z,15.90
2018-08-24T22:12:17.154Z,15.80
2018-08-24T22:14:45.614Z,15.80
2018-08-24T22:17:14.045Z,15.80
2018-08-24T22:19:42.524Z,15.80
2018-08-24T22:22:10.915Z,15.80
2018-08-24T22:24:39.350Z,15.80
2018-08-24T22:27:07.752Z,15.70
2018-08-24T22:29:36.211Z,15.70
2018-08-24T22:32:04.628Z,15.70
2018-08-24T22:34:33.044Z,15.60
2018-08-24T22:37:01.437Z,15.50
2018-08-24T22:39:29.904Z,15.40
2018-08-24T22:41:58.310Z,15.40
2018-08-24T22:44:26.732Z,15.30
2018-08-24T22:46:55.166Z,15.30
2018-08-24T22:49:23.588Z,15.30
2018-08-24T22:51:51.981Z,15.40
2018-08-24T22:54:20.445Z,15.40
2018-08-24T22:56:48.928Z,15.40
2018-08-24T22:59:17.324Z,15.50
2018-08-24T23:01:45.741Z,15.50
2018-08-24T23:06:42.262Z,15.40
2018-08-24T23:09:11.478Z,15.40
2018-08-24T23:11:40.065Z,15.40
2018-08-24T23:14:08.819Z,15.40
2018-08-24T23:16:37.238Z,15.40
2018-08-24T23:19:05.840Z,15.40
2018-08-24T23:21:34.272Z,15.40
2018-08-24T23:24:02.667Z,15.40
2018-08-24T23:26:31.099Z,15.50
2018-08-24T23:28:59.493Z,15.40
2018-08-24T23:31:27.936Z,15.50
2018-08-24T23:33:56.397Z,15.50
2018-08-24T23:36:24.833Z,15.50
2018-08-24T23:38:53.220Z,15.50
2018-08-24T23:41:21.640Z,15.50
2018-08-24T23:43:50.105Z,15.50
2018-08-24T23:46:18.534Z,15.30
2018-08-24T23:48:46.932Z,15.30
2018-08-24T23:51:15.392Z,15.40
2018-08-24T23:53:43.831Z,15.40
2018-08-24T23:56:12.280Z,15.30
2018-08-24T23:58:40.807Z,15.20
